Flight Track Log - Related Links

Times and Time Zones

All times are in EST time to prevent confusion due to time zone crossing. See the N8596W flight status page for this flight to view local times or setup timezone preferences in your user account.

Time Position Orientation Groundspeed Altitude Reporting Facility
EST Latitude Longitude Course Direction KTS MPH feet Rate Location/Type
Wed 02:22:47 PM 40.1167 -75.0500 323° Northwest 107 123 1,300  Level Philadelphia TRACON
Wed 02:23:47 PM 40.1333 -75.0667 323° Northwest 104 120 2,100 783 Climbing Philadelphia TRACON
Wed 02:24:42 PM 40.1500 -75.1000 303° West 99 114 2,800 678 Climbing Philadelphia TRACON
Wed 02:25:42 PM 40.1500 -75.1333 270° West 99 114 3,400 579 Climbing Philadelphia TRACON
Wed 02:26:36 PM 40.1667 -75.1500 323° Northwest 98 113 3,900 250 Climbing Philadelphia TRACON
Wed 02:27:42 PM 40.1667 -75.2000 270° West 121 139 3,900 48 Level Philadelphia TRACON
Wed 02:28:42 PM 40.1667 -75.2500 270° West 116 133 4,000 50 Climbing Philadelphia TRACON
Wed 02:29:42 PM 40.1833 -75.2833 303° West 115 132 4,000  Level Philadelphia TRACON
Wed 02:30:48 PM 40.1833 -75.3333 270° West 115 132 4,000  Level Philadelphia TRACON
Wed 02:31:48 PM 40.2000 -75.3667 303° West 121 139 4,000  Level Philadelphia TRACON
Wed 02:32:42 PM 40.2000 -75.4167 270° West 119 137 4,000  Level Philadelphia TRACON
Wed 02:33:42 PM 40.2000 -75.4500 270° West 118 136 4,000  Level Philadelphia TRACON
Wed 02:34:48 PM 40.2167 -75.5000 294° West 119 137 4,000  Level Philadelphia TRACON
Wed 02:35:43 PM 40.2167 -75.5333 270° West 118 136 4,000  Level Philadelphia TRACON
Wed 02:36:43 PM 40.2167 -75.5833 270° West 114 131 4,000  Level Philadelphia TRACON
Wed 02:37:43 PM 40.2167 -75.6167 270° West 114 131 4,000 85 Level Philadelphia TRACON
Wed 02:39:00 PM 40.2026 -75.6731 252° West  Level FlightAware Approximate
Wed 02:46:00 PM 40.1546 -75.9909 261° West  Level FlightAware Approximate
Wed 02:47:00 PM 40.1491 -76.0366 261° West  Level FlightAware Approximate
Wed 02:48:00 PM 40.1436 -76.0822 261° West  Level FlightAware Approximate
Wed 02:49:00 PM 40.1381 -76.1279 261° West  Level FlightAware Approximate
Wed 02:50:00 PM 40.1324 -76.1735 259° West  Level FlightAware Approximate
Wed 02:51:00 PM 40.1259 -76.2190 259° West  Level FlightAware Approximate
Wed 02:52:00 PM 40.1194 -76.2644 259° West  Level FlightAware Approximate
Wed 02:53:00 PM 40.1160 -76.3092 268° West  Level FlightAware Approximate
Wed 02:54:00 PM 40.1149 -76.3542 268° West  Level FlightAware Approximate
Wed 02:55:00 PM 40.1137 -76.3993 268° West  Level FlightAware Approximate
Wed 02:56:00 PM 40.1125 -76.4444 268° West  Level FlightAware Approximate
Wed 02:57:00 PM 40.1113 -76.4894 268° West  Level FlightAware Approximate
Wed 02:58:00 PM 40.1101 -76.5345 268° West  Level FlightAware Approximate
Wed 02:59:00 PM 40.1088 -76.5795 268° West  Level FlightAware Approximate
Wed 03:00:00 PM 40.1076 -76.6246 268° West  Level FlightAware Approximate
Wed 03:00:17 PM 40.1136 -76.5442 268° West 123 142 6,000  Level Cleveland Center
Wed 03:01:00 PM 40.1063 -76.6696 268° West  Level FlightAware Approximate
Wed 03:01:19 PM 40.1119 -76.5967 268° West 123 142 6,000  Level Cleveland Center
Wed 03:02:00 PM 40.1050 -76.7147 268° West  Level FlightAware Approximate
Wed 03:02:21 PM 40.1081 -76.6425 264° West 125 144 5,900  Level Cleveland Center
Wed 03:03:00 PM 40.1037 -76.7597 268° West  Level FlightAware Approximate
Wed 03:03:23 PM 40.1083 -76.6861 270° West 122 140 5,900  Level Cleveland Center
Wed 03:04:00 PM 40.1024 -76.8048 268° West  Level FlightAware Approximate
Wed 03:04:25 PM 40.1086 -76.7317 270° West 123 142 5,900  Level Cleveland Center
Wed 03:05:00 PM 40.1010 -76.8498 268° West  Level FlightAware Approximate
Wed 03:05:27 PM 40.1081 -76.7772 269° West 124 143 5,900  Level Cleveland Center
Wed 03:06:29 PM 40.1047 -76.8306 265° West 125 144 5,900  Level Cleveland Center
Wed 03:07:31 PM 40.1042 -76.8750 269° West 123 142 5,900  Level Cleveland Center
Wed 03:08:33 PM 40.1053 -76.9203 272° West 124 143 5,900  Level Cleveland Center
Wed 03:09:35 PM 40.1061 -76.9653 271° West 123 142 5,900  Level Cleveland Center
Wed 03:10:37 PM 40.1036 -77.0089 266° West 122 140 5,900  Level Cleveland Center
Wed 03:11:40 PM 40.0983 -77.0508 261° West 120 138 5,900  Level Cleveland Center
Wed 03:12:42 PM 40.0997 -77.1056 272° West 122 140 5,900 48 Level Cleveland Center
Wed 03:13:44 PM 40.1003 -77.1511 271° West 123 142 6,000 48 Climbing Cleveland Center
Wed 03:14:46 PM 40.0989 -77.1950 268° West 123 142 6,000 -48 Level Cleveland Center
Wed 03:15:48 PM 40.0956 -77.2403 265° West 125 144 5,900 -48 Descending Cleveland Center
Wed 03:16:50 PM 40.0947 -77.2844 269° West 124 143 5,900 -48 Level Cleveland Center
Wed 03:17:52 PM 40.0950 -77.3306 270° West 125 144 5,800  Descending Cleveland Center
Wed 03:18:54 PM 40.0981 -77.3822 274° West 121 139 5,900 48 Climbing Cleveland Center
Wed 03:19:56 PM 40.0961 -77.4264 267° West 122 140 5,900  Level Cleveland Center
Wed 03:20:58 PM 40.0881 -77.4697 256° West 123 142 5,900  Level Cleveland Center
Wed 03:22:01 PM 40.0856 -77.5139 266° West 122 140 5,900  Level Cleveland Center
Wed 03:23:03 PM 40.0878 -77.5569 274° West 121 139 5,900  Level Cleveland Center
Wed 03:24:05 PM 40.0894 -77.6025 273° West 122 140 5,900 48 Level Cleveland Center
Wed 03:25:07 PM 40.0850 -77.6531 263° West 118 136 6,000  Climbing Cleveland Center
Wed 03:26:09 PM 40.0822 -77.6956 265° West 117 135 5,900 -48 Descending Cleveland Center
Wed 03:27:11 PM 40.0828 -77.7386 271° West 119 137 5,900  Level Cleveland Center
Wed 03:28:13 PM 40.0817 -77.7800 268° West 116 133 5,900  Level Cleveland Center
Wed 03:29:15 PM 40.0797 -77.8228 267° West 116 133 5,900 48 Level Cleveland Center
Wed 03:30:17 PM 40.0764 -77.8658 264° West 117 135 6,000  Climbing Cleveland Center
Wed 03:30:40 PM 40.0758 -77.8928 268° West 119 137 5,900 -97 Descending Cleveland Center
Wed 03:31:19 PM 40.0764 -77.9181 272° West 119 137 5,900  Level Cleveland Center
Wed 03:31:41 PM 40.0772 -77.9339 274° West 119 137 5,900  Level Cleveland Center
Wed 03:32:21 PM 40.0769 -77.9603 269° West 119 137 5,900  Level Cleveland Center
Wed 03:32:42 PM 40.0761 -77.9772 266° West 118 136 5,900  Level Cleveland Center
Wed 03:33:24 PM 40.0742 -78.0028 264° West 118 136 5,900 100 Level Cleveland Center
Wed 03:33:42 PM 40.0731 -78.0178 264° West 117 135 6,000 97 Climbing Cleveland Center
Wed 03:34:26 PM 40.0722 -78.0450 268° West 118 136 6,000  Level Cleveland Center
Wed 03:34:43 PM 40.0719 -78.0614 269° West 120 138 6,000  Level Cleveland Center
Wed 03:35:28 PM 40.0711 -78.0881 268° West 118 136 6,000  Level Cleveland Center
Wed 03:35:44 PM 40.0706 -78.1075 268° West 120 138 6,000  Level Cleveland Center
Wed 03:36:30 PM 40.0714 -78.1397 272° West 119 137 6,000  Level Cleveland Center
Wed 03:36:44 PM 40.0694 -78.1511 257° West 120 138 6,000  Level Cleveland Center
Wed 03:37:32 PM 40.0689 -78.1822 269° West 119 137 6,000  Level Cleveland Center
Wed 03:37:45 PM 40.0683 -78.1944 267° West 120 138 6,000  Level Cleveland Center
Wed 03:38:34 PM 40.0667 -78.2247 266° West 118 136 6,000  Level Cleveland Center
Wed 03:38:45 PM 40.0650 -78.2378 261° West 120 138 6,000  Level Cleveland Center
Wed 03:39:36 PM 40.0647 -78.2686 269° West 120 138 6,000  Level Cleveland Center
Wed 03:39:46 PM 40.0636 -78.2839 265° West 120 138 6,000  Level Cleveland Center
Wed 03:40:38 PM 40.0631 -78.3122 269° West 121 139 6,000  Level Cleveland Center
Wed 03:40:47 PM 40.0625 -78.3272 267° West 120 138 6,000  Level Cleveland Center
Wed 03:41:40 PM 40.0625 -78.3636 270° West 120 138 6,000  Level Cleveland Center
Wed 03:41:47 PM 40.0614 -78.3681 252° West 121 139 6,000  Level Cleveland Center
Wed 03:42:48 PM 40.0619 -78.4144 271° West 122 140 6,000  Level Cleveland Center
Wed 03:43:44 PM 40.0600 -78.4517 266° West 121 139 6,000  Level Cleveland Center
Wed 03:43:48 PM 40.0583 -78.4606 256° West 123 142 6,000  Level Cleveland Center
Wed 03:44:46 PM 40.0578 -78.4950 269° West 122 140 6,000  Level Cleveland Center
Wed 03:44:49 PM 40.0572 -78.5039 265° West 122 140 6,000  Level Cleveland Center
Wed 03:45:49 PM 40.0569 -78.5394 269° West 123 142 6,000 -98 Level Cleveland Center
Wed 03:45:50 PM 40.0558 -78.5472 259° West 123 142 5,900 -871 Descending Cleveland Center
Wed 03:46:51 PM 40.0553 -78.5881 269° West 129 148 5,100 -732 Descending Cleveland Center
Wed 03:47:53 PM 40.0536 -78.6472 268° West 134 154 4,400 -298 Descending Cleveland Center
Wed 03:48:52 PM 40.0503 -78.6967 265° West 129 148 4,500 97 Climbing Cleveland Center
Wed 03:48:55 PM 40.0508 -78.6950 66° East 134 154 4,500  Level Cleveland Center
Wed 03:49:52 PM 40.0489 -78.7400 267° West 122 140 4,500  Level Cleveland Center
Wed 03:49:57 PM 40.0492 -78.7411 288° West 130 150 4,500  Level Cleveland Center
Wed 03:51:00 PM 40.0416 -78.7851 257° West  Level FlightAware Approximate
Wed 03:58:00 PM 40.0333 -79.0000 270° West  Level FlightAware Approximate
Wed 03:59:00 PM 40.0389 -79.0150 270° West  Level Estimated
Wed 04:00:00 PM 40.0389 -79.0150 270° West  Level Estimated

Login

Don't have an account? Register now (free) for customized features, flight alerts, and more!